Kagoshima, Japan

5:06 AM JST on March 07, 2015 (GMT +0900)
Kanoya | Change Station
CLOSE
Current Station
Airport
Location: Kanoya AB,
Elevation: 223 ft
Nearby Weather Stations

Elev 223 ft 31.37 °N, 130.84 °E | Updated 2 hours ago

Overcast
Overcast
46 °F
Feels Like 44 °F
N
5
Wind Variable Wind from SE

Today
High -- | Low -- °F
--% Chance of Precip.
Yesterday
High -- | Low -- °F
Precip. -- in
6:38 AM 6:19 PM
Full, 99% visible
Pressure 30.06 in
Visibility 3.1 miles
Clouds Few 300 ft
Mostly Cloudy 1500 ft
Overcast 3000 ft
Windchill 44 °F
Dew Point 45 °F
Humidity 93%
Rainfall 0.00 in
Snow Depth Not available.
UV 0 out of 12
Pollen Not available.
Air Quality Not available.
Flu Activity Not available.
SPECI RJFY 061707Z 13004KT 5000 BR FEW003 BKN015 OVC030 08/07 Q1018 RMK 1ST003 6SC015 8SC030 A3007

More Conditions Fewer Conditions

Pressure 30.06 in
Visibility 3.1 miles
Clouds Few 300 ft
Mostly Cloudy 1500 ft
Overcast 3000 ft
Windchill 44 °F
Dew Point 45 °F
Humidity 93%
Rainfall 0.00 in
Snow Depth Not available.
UV 0 out of 12
Pollen Not available.
Air Quality Not available.
Flu Activity Not available.
SPECI RJFY 061707Z 13004KT 5000 BR FEW003 BKN015 OVC030 08/07 Q1018 RMK 1ST003 6SC015 8SC030 A3007

More Conditions Fewer Conditions

10-Day Weather Forecast

Almanac

Astronomy

Mar. 07, 2015 Rise Set
Actual Time
Civil Twilight
Nautical Twilight
Astronomical Twilight
Moon
Length of Visible Light
Length of Day
Tomorrow will be .
, % of the Moon is Illuminated

Today's Extremes

Country Highs Country Lows

Community

WunderPhotos

Upload Photos

1,803,386 photos uploaded!

WunderBlogs® & News

Nearby

Air Quality

  Air Quality AQ Index Pollutant
Not available.

Snow Depth

Station Depth Elevation

Earthquake Activity

City Distance Mag. Time & Date
Minimum magnitude displayed is 2.5.

Coastal Water Temperatures

Place Temperature

Nearby Weather Stations